createdAt,value
2023-04-09T00:00:23.849Z,94.58
2023-04-09T00:02:51.073Z,94.57
2023-04-09T00:05:18.131Z,94.23
2023-04-09T00:07:45.199Z,93.48
2023-04-09T00:10:12.199Z,93.25
2023-04-09T00:12:39.055Z,93.75
2023-04-09T00:15:08.407Z,93.93
2023-04-09T00:17:38.009Z,92.92
2023-04-09T00:20:07.769Z,93.61
2023-04-09T00:22:35.189Z,94.79
2023-04-09T00:25:02.459Z,94.87
2023-04-09T00:27:29.357Z,94.94
2023-04-09T00:29:56.383Z,95.01
2023-04-09T00:32:23.415Z,94.48
2023-04-09T00:34:50.558Z,95.16
2023-04-09T00:37:17.137Z,95.64
2023-04-09T00:39:43.626Z,94.77
2023-04-09T00:42:10.527Z,95.09
2023-04-09T00:44:37.906Z,95.93
2023-04-09T00:47:04.434Z,95.79
2023-04-09T00:49:31.339Z,95.39
2023-04-09T00:51:58.204Z,94.30
2023-04-09T00:54:24.869Z,93.65
2023-04-09T00:56:52.175Z,93.13
2023-04-09T00:59:19.343Z,93.46
2023-04-09T01:01:45.859Z,93.92
2023-04-09T01:04:13.015Z,92.96
2023-04-09T01:06:50.677Z,93.81
2023-04-09T01:09:23.804Z,94.64
2023-04-09T01:12:09.089Z,94.70
2023-04-09T01:15:05.579Z,93.93
2023-04-09T01:17:49.178Z,94.35
2023-04-09T01:20:29.007Z,94.72
2023-04-09T01:23:05.425Z,94.89
2023-04-09T01:26:03.134Z,94.82
2023-04-09T01:28:33.547Z,95.60
2023-04-09T01:31:13.301Z,95.87
2023-04-09T01:33:44.647Z,95.45
2023-04-09T01:36:11.567Z,95.81
2023-04-09T01:38:43.291Z,95.85
2023-04-09T01:41:14.881Z,95.55
2023-04-09T01:43:42.505Z,95.52
2023-04-09T01:46:10.824Z,95.17
2023-04-09T01:48:38.605Z,95.15
2023-04-09T01:51:05.858Z,95.23
2023-04-09T01:53:32.668Z,94.74
2023-04-09T01:56:01.235Z,94.43
2023-04-09T01:58:29.330Z,93.92
2023-04-09T02:01:03.609Z,93.29
2023-04-09T02:03:36.950Z,93.72
2023-04-09T02:06:12.908Z,93.97
2023-04-09T02:08:43.189Z,92.77
2023-04-09T02:11:10.804Z,92.52
2023-04-09T02:13:41.501Z,93.17
2023-04-09T02:16:11.946Z,93.36
2023-04-09T02:18:39.091Z,92.53
2023-04-09T02:21:06.027Z,92.93
2023-04-09T02:23:33.542Z,93.71
2023-04-09T02:26:01.175Z,93.81
2023-04-09T02:28:29.844Z,93.12
2023-04-09T02:30:56.735Z,93.24
2023-04-09T02:33:24.372Z,92.21
2023-04-09T02:35:51.885Z,92.26
2023-04-09T02:38:21.148Z,90.56
2023-04-09T02:40:49.428Z,90.72
2023-04-09T02:43:16.981Z,91.55
2023-04-09T02:45:45.367Z,92.10
2023-04-09T02:48:12.543Z,92.80
2023-04-09T02:50:40.656Z,91.25
2023-04-09T02:53:10.638Z,90.90
2023-04-09T02:55:38.409Z,90.24
2023-04-09T02:58:05.232Z,90.55
2023-04-09T03:00:32.149Z,91.76
2023-04-09T03:03:01.119Z,92.05
2023-04-09T03:05:27.676Z,91.15
2023-04-09T03:07:56.018Z,91.36
2023-04-09T03:10:23.153Z,91.17
2023-04-09T03:12:51.441Z,89.48
2023-04-09T03:15:18.021Z,89.71
2023-04-09T03:17:44.952Z,88.67
2023-04-09T03:20:12.253Z,88.40
2023-04-09T03:22:40.151Z,88.52
2023-04-09T03:25:07.055Z,87.14
2023-04-09T03:27:34.894Z,86.90
2023-04-09T03:30:01.759Z,86.41
2023-04-09T03:32:28.601Z,86.34
2023-04-09T03:34:55.458Z,86.36
2023-04-09T03:37:22.346Z,88.70
2023-04-09T03:39:48.886Z,88.32
2023-04-09T03:42:16.026Z,88.65
2023-04-09T03:44:42.784Z,88.87
2023-04-09T03:47:09.264Z,89.89
2023-04-09T03:49:36.516Z,91.40
2023-04-09T03:52:03.466Z,90.95
2023-04-09T03:54:32.141Z,91.67
2023-04-09T03:56:58.853Z,91.16
2023-04-09T03:59:26.156Z,91.81
2023-04-09T04:01:52.801Z,92.24
2023-04-09T04:04:22.840Z,90.89
2023-04-09T04:06:50.877Z,90.72
2023-04-09T04:09:17.689Z,90.41
2023-04-09T04:11:44.508Z,90.66
2023-04-09T04:14:11.497Z,91.49
2023-04-09T04:16:40.786Z,90.18
2023-04-09T04:19:07.501Z,91.20
2023-04-09T04:21:34.361Z,90.63
2023-04-09T04:24:01.579Z,91.29
2023-04-09T04:26:28.520Z,92.17
2023-04-09T04:28:56.342Z,92.44
2023-04-09T04:31:23.233Z,92.59
2023-04-09T04:33:49.826Z,93.00
2023-04-09T04:36:17.108Z,92.77
2023-04-09T04:38:44.276Z,93.07
2023-04-09T04:41:11.924Z,93.40
2023-04-09T04:43:41.215Z,93.28
2023-04-09T04:46:08.500Z,92.52
2023-04-09T04:48:36.006Z,91.33
2023-04-09T04:51:02.964Z,91.64
2023-04-09T04:53:29.806Z,90.78
2023-04-09T04:55:56.635Z,91.28
2023-04-09T04:58:24.733Z,90.84
2023-04-09T05:00:51.647Z,91.04
2023-04-09T05:03:18.707Z,91.74
2023-04-09T05:05:46.318Z,92.85
2023-04-09T05:08:13.139Z,92.71
2023-04-09T05:10:42.937Z,92.63
2023-04-09T05:13:09.867Z,92.16
2023-04-09T05:15:41.116Z,92.01
2023-04-09T05:18:08.775Z,92.07
2023-04-09T05:20:36.309Z,91.59
2023-04-09T05:23:03.454Z,90.86
2023-04-09T05:25:30.922Z,90.91
2023-04-09T05:27:58.229Z,91.51
2023-04-09T05:30:25.240Z,91.59
2023-04-09T05:32:52.204Z,91.79
2023-04-09T05:35:19.987Z,90.95
2023-04-09T05:37:47.066Z,90.16
2023-04-09T05:40:14.747Z,91.40
2023-04-09T05:42:42.691Z,91.13
2023-04-09T05:45:10.191Z,90.80
2023-04-09T05:47:38.669Z,91.14
2023-04-09T05:50:06.274Z,90.53
2023-04-09T05:52:33.617Z,90.68
2023-04-09T05:55:01.033Z,90.32
2023-04-09T05:57:30.503Z,90.10
2023-04-09T05:59:59.336Z,90.66
2023-04-09T06:02:26.533Z,90.14
2023-04-09T06:04:54.812Z,89.64
2023-04-09T06:07:21.869Z,89.51
2023-04-09T06:09:48.757Z,89.06
2023-04-09T06:12:15.793Z,88.63
2023-04-09T06:14:43.118Z,88.56
2023-04-09T06:17:09.905Z,89.03
2023-04-09T06:19:36.653Z,88.36
2023-04-09T06:22:03.490Z,87.19
2023-04-09T06:24:32.177Z,86.69
2023-04-09T06:27:00.197Z,86.06
2023-04-09T06:29:28.034Z,84.99
2023-04-09T06:31:55.141Z,85.27
2023-04-09T06:34:24.858Z,84.38
2023-04-09T06:36:51.514Z,84.00
2023-04-09T06:39:18.227Z,82.93
2023-04-09T06:41:45.028Z,82.24
2023-04-09T06:44:11.945Z,83.08
2023-04-09T06:46:38.725Z,80.84
2023-04-09T06:49:06.116Z,82.89
2023-04-09T06:51:33.192Z,82.51
2023-04-09T06:53:59.996Z,83.36
2023-04-09T06:56:26.817Z,82.39
2023-04-09T06:58:53.407Z,81.81
2023-04-09T07:01:20.443Z,79.38
2023-04-09T07:03:47.248Z,78.07
2023-04-09T07:06:13.863Z,77.46
2023-04-09T07:08:40.625Z,77.86
2023-04-09T07:11:07.456Z,76.36
2023-04-09T07:13:34.853Z,81.13
2023-04-09T07:16:01.584Z,82.55
2023-04-09T07:18:28.688Z,80.94
2023-04-09T07:20:55.313Z,83.49
2023-04-09T07:23:22.960Z,82.39
2023-04-09T07:25:49.834Z,80.11
2023-04-09T07:28:17.985Z,78.05
2023-04-09T07:30:46.936Z,73.40
2023-04-09T07:33:14.104Z,72.04
2023-04-09T07:35:42.277Z,68.26
2023-04-09T07:38:09.456Z,64.62
2023-04-09T07:40:36.691Z,60.22
2023-04-09T07:43:05.772Z,63.52
2023-04-09T07:45:32.413Z,60.89
2023-04-09T07:47:59.423Z,60.76
2023-04-09T07:50:27.176Z,63.08
2023-04-09T07:52:55.403Z,65.41
2023-04-09T07:55:23.533Z,64.25
2023-04-09T07:57:51.618Z,66.41
2023-04-09T08:00:19.230Z,65.48
2023-04-09T08:02:46.744Z,65.79
2023-04-09T08:05:14.078Z,64.87
2023-04-09T08:07:41.895Z,64.33
2023-04-09T08:10:13.887Z,61.44
2023-04-09T08:12:41.592Z,58.84
2023-04-09T08:15:09.286Z,56.39
2023-04-09T08:17:39.320Z,50.54
2023-04-09T08:20:06.898Z,47.72
2023-04-09T08:22:34.679Z,48.35
2023-04-09T08:25:02.804Z,49.07
2023-04-09T08:27:30.239Z,50.54
2023-04-09T08:29:57.498Z,52.69
2023-04-09T08:32:24.377Z,53.51
2023-04-09T08:34:52.807Z,51.22
2023-04-09T08:37:21.317Z,51.61
2023-04-09T08:39:48.683Z,50.77
2023-04-09T08:42:17.853Z,47.57
2023-04-09T08:44:45.153Z,44.96
2023-04-09T08:47:13.034Z,45.77
2023-04-09T08:49:41.078Z,48.60
2023-04-09T08:52:08.069Z,51.38
2023-04-09T08:54:37.149Z,51.14
2023-04-09T08:57:07.484Z,50.42
2023-04-09T08:59:37.816Z,48.40
2023-04-09T09:02:11.692Z,48.83
2023-04-09T09:04:49.599Z,51.89
2023-04-09T09:07:17.392Z,52.21
2023-04-09T09:09:56.499Z,49.96
2023-04-09T09:12:36.637Z,50.06
2023-04-09T09:15:05.567Z,48.88
2023-04-09T09:17:32.898Z,49.79
2023-04-09T09:20:19.280Z,49.17
2023-04-09T09:22:54.987Z,50.78
2023-04-09T09:25:24.928Z,53.25
2023-04-09T09:27:53.842Z,51.48
2023-04-09T09:30:23.361Z,51.50
2023-04-09T09:33:07.864Z,50.43
2023-04-09T09:35:54.010Z,45.58
2023-04-09T09:38:21.047Z,48.26
2023-04-09T09:40:49.812Z,48.52
2023-04-09T09:43:17.781Z,45.83
2023-04-09T09:45:46.494Z,49.02
2023-04-09T09:48:14.596Z,50.96
2023-04-09T09:50:42.586Z,49.50
2023-04-09T09:53:11.245Z,51.33
2023-04-09T09:55:39.766Z,48.20
2023-04-09T09:58:16.476Z,50.83
2023-04-09T10:00:46.394Z,46.75
2023-04-09T10:03:19.752Z,43.49
2023-04-09T10:05:48.978Z,45.49
2023-04-09T10:08:16.560Z,49.07
2023-04-09T10:10:44.452Z,47.75
2023-04-09T10:13:18.752Z,41.45
2023-04-09T10:15:45.938Z,45.75
2023-04-09T10:18:14.663Z,46.69
2023-04-09T10:21:07.815Z,49.85
2023-04-09T10:23:44.238Z,48.65
2023-04-09T10:26:11.566Z,39.89
2023-04-09T10:28:39.239Z,41.85
2023-04-09T10:31:07.501Z,45.91
2023-04-09T10:33:37.503Z,36.10
2023-04-09T10:36:09.652Z,34.33
2023-04-09T10:38:41.059Z,36.57
2023-04-09T10:41:27.500Z,41.26
2023-04-09T10:43:57.299Z,46.15
2023-04-09T10:46:29.925Z,39.87
2023-04-09T10:49:27.238Z,43.03
2023-04-09T10:52:01.732Z,38.14
2023-04-09T10:54:34.657Z,43.59
2023-04-09T10:57:07.933Z,43.84
2023-04-09T10:59:42.506Z,43.85
2023-04-09T11:02:36.028Z,39.36
2023-04-09T11:05:06.666Z,34.18
2023-04-09T11:07:40.484Z,32.34
2023-04-09T11:10:07.959Z,38.00
2023-04-09T11:12:34.809Z,42.76
2023-04-09T11:15:02.599Z,42.43
2023-04-09T11:17:29.768Z,43.14
2023-04-09T11:19:57.244Z,45.53
2023-04-09T11:22:24.298Z,44.63
2023-04-09T11:24:53.690Z,40.57
2023-04-09T11:27:20.859Z,37.70
2023-04-09T11:29:48.063Z,39.15
2023-04-09T11:32:14.761Z,41.69
2023-04-09T11:34:41.749Z,43.95
2023-04-09T11:37:14.748Z,43.71
2023-04-09T11:39:44.808Z,44.05
2023-04-09T11:42:25.541Z,47.20
2023-04-09T11:44:53.341Z,46.37
2023-04-09T11:47:21.410Z,48.08
2023-04-09T11:49:49.428Z,46.26
2023-04-09T11:52:16.574Z,44.72
2023-04-09T11:54:49.700Z,45.79
2023-04-09T11:57:17.384Z,47.00
2023-04-09T11:59:45.106Z,45.41
2023-04-09T12:02:12.122Z,45.80
2023-04-09T12:04:49.234Z,41.88
2023-04-09T12:07:17.308Z,40.28
2023-04-09T12:09:49.023Z,38.11
2023-04-09T12:12:19.898Z,38.99
2023-04-09T12:14:47.496Z,42.11
2023-04-09T12:17:14.293Z,40.84
2023-04-09T12:19:41.970Z,42.33
2023-04-09T12:22:10.156Z,42.29
2023-04-09T12:24:38.058Z,43.68
2023-04-09T12:27:04.762Z,43.53
2023-04-09T12:29:33.532Z,45.00
2023-04-09T12:32:01.640Z,43.39
2023-04-09T12:34:29.171Z,43.38
2023-04-09T12:36:56.032Z,46.53
2023-04-09T12:39:23.635Z,44.77
2023-04-09T12:41:51.262Z,41.88
2023-04-09T12:44:18.326Z,43.16
2023-04-09T12:46:45.271Z,44.63
2023-04-09T12:49:12.534Z,44.18
2023-04-09T12:51:39.738Z,45.98
2023-04-09T12:54:07.323Z,43.83
2023-04-09T12:56:35.431Z,45.23
2023-04-09T12:59:03.751Z,45.40
2023-04-09T13:01:30.590Z,44.01
2023-04-09T13:03:57.887Z,43.37
2023-04-09T13:06:25.294Z,43.65
2023-04-09T13:08:52.076Z,45.71
2023-04-09T13:11:18.637Z,45.66
2023-04-09T13:13:45.243Z,44.79
2023-04-09T13:16:12.614Z,43.25
2023-04-09T13:18:39.578Z,42.80
2023-04-09T13:21:06.755Z,44.37
2023-04-09T13:23:34.522Z,40.51
2023-04-09T13:26:01.833Z,41.05
2023-04-09T13:28:28.810Z,39.28
2023-04-09T13:30:55.545Z,38.83
2023-04-09T13:33:22.789Z,39.74
2023-04-09T13:35:51.066Z,40.18
2023-04-09T13:38:19.115Z,40.61
2023-04-09T13:40:46.068Z,41.79
2023-04-09T13:43:13.480Z,42.59
2023-04-09T13:45:40.263Z,41.69
2023-04-09T13:48:07.748Z,41.47
2023-04-09T13:50:35.168Z,43.20
2023-04-09T13:53:05.131Z,41.63
2023-04-09T13:55:32.270Z,41.64
2023-04-09T13:57:59.866Z,42.51
2023-04-09T14:00:27.501Z,38.90
2023-04-09T14:02:54.638Z,41.34
2023-04-09T14:05:21.314Z,40.85
2023-04-09T14:07:48.174Z,41.37
2023-04-09T14:10:15.814Z,42.58
2023-04-09T14:12:43.318Z,41.43
2023-04-09T14:15:11.505Z,39.10
2023-04-09T14:17:44.162Z,42.41
2023-04-09T14:20:11.121Z,39.85
2023-04-09T14:22:38.800Z,41.46
2023-04-09T14:25:06.893Z,42.21
2023-04-09T14:27:34.733Z,39.54
2023-04-09T14:30:03.316Z,41.42
2023-04-09T14:32:31.584Z,42.83
2023-04-09T14:34:58.743Z,40.89
2023-04-09T14:37:26.148Z,39.85
2023-04-09T14:39:53.896Z,39.29
2023-04-09T14:42:21.492Z,39.29
2023-04-09T14:44:48.868Z,38.62
2023-04-09T14:47:16.034Z,38.75
2023-04-09T14:49:43.795Z,40.54
2023-04-09T14:52:11.629Z,40.44
2023-04-09T14:54:39.459Z,43.05
2023-04-09T14:57:06.933Z,43.43
2023-04-09T14:59:34.608Z,41.05
2023-04-09T15:02:01.341Z,42.47
2023-04-09T15:04:30.107Z,41.60
2023-04-09T15:06:56.807Z,43.11
2023-04-09T15:09:23.278Z,42.09
2023-04-09T15:11:50.032Z,42.63
2023-04-09T15:14:16.872Z,41.49
2023-04-09T15:16:43.553Z,44.74
2023-04-09T15:19:10.676Z,44.44
2023-04-09T15:21:38.180Z,43.66
2023-04-09T15:24:05.340Z,44.41
2023-04-09T15:26:34.397Z,44.73
2023-04-09T15:29:06.342Z,42.29
2023-04-09T15:31:34.283Z,43.36
2023-04-09T15:34:03.407Z,42.18
2023-04-09T15:36:31.402Z,44.60
2023-04-09T15:38:58.447Z,43.79
2023-04-09T15:41:26.748Z,44.48
2023-04-09T15:43:53.600Z,44.27
2023-04-09T15:46:21.191Z,42.19
2023-04-09T15:48:49.201Z,41.71
2023-04-09T15:51:16.721Z,43.21
2023-04-09T15:53:43.578Z,44.51
2023-04-09T15:56:16.800Z,43.73
2023-04-09T15:58:43.827Z,43.71
2023-04-09T16:01:11.128Z,41.41
2023-04-09T16:03:41.691Z,39.97
2023-04-09T16:06:13.100Z,39.44
2023-04-09T16:08:40.152Z,38.93
2023-04-09T16:11:08.176Z,41.13
2023-04-09T16:13:35.312Z,41.29
2023-04-09T16:16:01.835Z,42.11
2023-04-09T16:18:29.826Z,41.14
2023-04-09T16:20:57.140Z,43.18
2023-04-09T16:23:25.784Z,41.75
2023-04-09T16:25:52.811Z,44.50
2023-04-09T16:28:23.472Z,44.82
2023-04-09T16:30:50.884Z,42.73
2023-04-09T16:33:18.148Z,41.58
2023-04-09T16:35:44.869Z,42.82
2023-04-09T16:38:12.617Z,40.00
2023-04-09T16:40:40.474Z,41.99
2023-04-09T16:43:09.072Z,40.93
2023-04-09T16:45:36.069Z,40.21
2023-04-09T16:48:03.506Z,42.25
2023-04-09T16:50:30.545Z,42.02
2023-04-09T16:52:57.681Z,41.43
2023-04-09T16:55:25.737Z,42.26
2023-04-09T16:57:52.685Z,42.60
2023-04-09T17:00:20.773Z,42.02
2023-04-09T17:02:48.339Z,42.02
2023-04-09T17:05:17.759Z,43.05
2023-04-09T17:07:44.813Z,41.48
2023-04-09T17:10:12.570Z,41.59
2023-04-09T17:12:40.579Z,42.27
2023-04-09T17:15:08.659Z,41.62
2023-04-09T17:17:35.687Z,42.50
2023-04-09T17:20:04.462Z,43.06
2023-04-09T17:22:31.601Z,43.51
2023-04-09T17:24:58.810Z,43.58
2023-04-09T17:27:25.928Z,44.98
2023-04-09T17:29:53.755Z,45.00
2023-04-09T17:32:20.973Z,46.14
2023-04-09T17:34:49.341Z,44.99
2023-04-09T17:37:16.856Z,44.85
2023-04-09T17:39:43.850Z,45.31
2023-04-09T17:42:12.138Z,47.14
2023-04-09T17:44:39.070Z,47.46
2023-04-09T17:47:07.314Z,48.61
2023-04-09T17:49:34.291Z,49.32
2023-04-09T17:52:01.862Z,50.55
2023-04-09T17:54:34.744Z,53.29
2023-04-09T17:57:02.380Z,56.44
2023-04-09T17:59:30.869Z,56.51
2023-04-09T18:01:57.819Z,58.00
2023-04-09T18:04:25.165Z,55.24
2023-04-09T18:06:52.921Z,57.31
2023-04-09T18:09:20.517Z,57.51
2023-04-09T18:11:48.892Z,58.41
2023-04-09T18:14:15.957Z,59.66
2023-04-09T18:16:43.158Z,57.28
2023-04-09T18:19:11.778Z,60.93
2023-04-09T18:21:39.677Z,61.32
2023-04-09T18:24:06.720Z,62.36
2023-04-09T18:26:33.828Z,62.67
2023-04-09T18:29:01.736Z,62.99
2023-04-09T18:31:29.220Z,64.34
2023-04-09T18:33:56.547Z,66.18
2023-04-09T18:36:23.618Z,67.74
2023-04-09T18:38:52.563Z,67.83
2023-04-09T18:41:26.416Z,69.34
2023-04-09T18:43:54.072Z,68.30
2023-04-09T18:46:22.656Z,69.11
2023-04-09T18:48:49.922Z,69.77
2023-04-09T18:51:18.868Z,70.68
2023-04-09T18:53:52.648Z,72.21
2023-04-09T18:56:24.556Z,73.65
2023-04-09T18:58:52.245Z,72.15
2023-04-09T19:01:20.202Z,73.34
2023-04-09T19:03:47.487Z,73.86
2023-04-09T19:06:17.764Z,75.44
2023-04-09T19:08:47.875Z,75.15
2023-04-09T19:11:14.895Z,74.20
2023-04-09T19:13:41.752Z,75.08
2023-04-09T19:16:11.337Z,74.61
2023-04-09T19:18:38.534Z,75.41
2023-04-09T19:21:07.450Z,75.38
2023-04-09T19:23:35.227Z,74.00
2023-04-09T19:26:02.612Z,76.26
2023-04-09T19:28:29.677Z,74.71
2023-04-09T19:30:56.806Z,75.19
2023-04-09T19:33:26.332Z,75.80
2023-04-09T19:35:55.030Z,76.14
2023-04-09T19:38:22.710Z,76.16
2023-04-09T19:40:49.409Z,76.74
2023-04-09T19:43:16.378Z,76.81
2023-04-09T19:45:43.554Z,78.38
2023-04-09T19:48:10.801Z,77.09
2023-04-09T19:50:40.341Z,77.17
2023-04-09T19:53:07.362Z,77.39
2023-04-09T19:55:34.866Z,75.95
2023-04-09T19:58:02.044Z,76.64
2023-04-09T20:00:29.641Z,77.10
2023-04-09T20:02:57.427Z,78.25
2023-04-09T20:05:24.953Z,77.75
2023-04-09T20:07:53.047Z,77.13
2023-04-09T20:10:19.989Z,77.04
2023-04-09T20:12:48.806Z,77.37
2023-04-09T20:15:17.546Z,78.41
2023-04-09T20:17:47.774Z,78.68
2023-04-09T20:20:14.585Z,80.61
2023-04-09T20:22:43.264Z,81.20
2023-04-09T20:25:11.755Z,80.27
2023-04-09T20:27:39.361Z,81.43
2023-04-09T20:30:07.023Z,81.73
2023-04-09T20:32:36.906Z,81.79
2023-04-09T20:35:05.905Z,81.31
2023-04-09T20:37:32.678Z,81.18
2023-04-09T20:40:00.056Z,81.05
2023-04-09T20:42:29.375Z,81.41
2023-04-09T20:44:58.565Z,79.76
2023-04-09T20:47:28.217Z,80.32
2023-04-09T20:49:59.766Z,78.91
2023-04-09T20:52:30.448Z,78.58
2023-04-09T20:54:58.372Z,78.68
2023-04-09T20:57:25.941Z,78.34
2023-04-09T20:59:55.847Z,79.81
2023-04-09T21:02:23.667Z,79.90
2023-04-09T21:04:51.243Z,79.08
2023-04-09T21:07:18.422Z,80.06
2023-04-09T21:09:46.844Z,80.92
2023-04-09T21:12:13.933Z,83.51
2023-04-09T21:14:42.379Z,82.77
2023-04-09T21:17:09.779Z,82.05
2023-04-09T21:19:37.845Z,82.15
2023-04-09T21:22:04.801Z,84.09
2023-04-09T21:24:33.911Z,83.45
2023-04-09T21:27:01.578Z,82.75
2023-04-09T21:29:28.888Z,83.21
2023-04-09T21:31:56.576Z,83.03
2023-04-09T21:34:23.755Z,83.45
2023-04-09T21:36:51.162Z,83.28
2023-04-09T21:39:17.927Z,83.36
2023-04-09T21:41:44.462Z,84.64
2023-04-09T21:44:13.262Z,84.18
2023-04-09T21:46:41.543Z,83.56
2023-04-09T21:49:08.597Z,83.93
2023-04-09T21:51:35.994Z,84.11
2023-04-09T21:54:07.642Z,83.39
2023-04-09T21:56:35.791Z,82.79
2023-04-09T21:59:03.724Z,83.05
2023-04-09T22:01:31.632Z,85.01
2023-04-09T22:04:00.094Z,84.83
2023-04-09T22:06:30.891Z,85.28
2023-04-09T22:08:58.569Z,85.16
2023-04-09T22:11:27.552Z,84.37
2023-04-09T22:13:57.225Z,85.94
2023-04-09T22:16:25.385Z,85.48
2023-04-09T22:18:53.920Z,84.85
2023-04-09T22:21:22.236Z,86.17
2023-04-09T22:23:49.442Z,85.49
2023-04-09T22:26:16.806Z,86.14
2023-04-09T22:28:44.534Z,86.99
2023-04-09T22:31:11.379Z,86.62
2023-04-09T22:33:38.512Z,87.16
2023-04-09T22:36:05.658Z,86.89
2023-04-09T22:38:34.315Z,86.62
2023-04-09T22:41:01.637Z,86.63
2023-04-09T22:43:28.239Z,86.71
2023-04-09T22:45:56.010Z,87.35
2023-04-09T22:48:23.215Z,86.32
2023-04-09T22:50:50.348Z,87.27
2023-04-09T22:53:21.692Z,86.26
2023-04-09T22:55:51.443Z,86.88
2023-04-09T22:58:18.894Z,88.44
2023-04-09T23:00:47.382Z,88.99
2023-04-09T23:03:15.910Z,89.04
2023-04-09T23:06:02.320Z,89.26
2023-04-09T23:08:31.092Z,87.66
2023-04-09T23:10:57.944Z,87.49
2023-04-09T23:13:25.798Z,87.00
2023-04-09T23:15:52.553Z,87.47
2023-04-09T23:18:19.474Z,88.38
2023-04-09T23:20:46.196Z,89.11
2023-04-09T23:23:13.486Z,89.41
2023-04-09T23:25:40.425Z,87.89
2023-04-09T23:28:07.337Z,86.33
2023-04-09T23:30:34.329Z,86.48
2023-04-09T23:33:02.024Z,88.35
2023-04-09T23:35:29.276Z,87.84
2023-04-09T23:37:55.953Z,88.04
2023-04-09T23:40:23.453Z,87.16
2023-04-09T23:42:51.629Z,87.59
2023-04-09T23:45:23.355Z,87.02
2023-04-09T23:47:57.426Z,87.27
2023-04-09T23:50:24.477Z,88.46
2023-04-09T23:52:53.201Z,88.39
2023-04-09T23:55:20.854Z,88.33
2023-04-09T23:57:47.659Z,87.32
